Time;durP1;ratioP1;P1;durP2;ratioP2;P2;SDS_P1;SDS_P2;PMS_P1;PMS_P2;Temp;Humidity;BMP_temperature;BMP_pressure;BME280_temperature;BME280_humidity;BME280_pressure;Samples;Min_cycle;Max_cycle;Signal;HPM_P1;HPM_P2
2021/11/11 00:02:14;;;;;;;226.85;64.85;;;;;;;;;;5070164;28;20057;-69
2021/11/11 00:04:41;;;;;;;223.07;65.15;;;;;;;;;;5063158;28;20136;-69
2021/11/11 00:07:07;;;;;;;228.70;67.47;;;;;;;;;;5046444;28;20049;-70
2021/11/11 00:09:34;;;;;;;232.10;66.05;;;;;;;;;;5064451;28;20049;-70
2021/11/11 00:12:00;;;;;;;234.25;68.18;;;;;;;;;;5042356;28;20049;-69
2021/11/11 00:14:26;;;;;;;229.38;66.78;;;;;;;;;;5042068;28;20151;-69
2021/11/11 00:16:53;;;;;;;226.73;66.30;;;;;;;;;;5066320;28;20052;-69
2021/11/11 00:19:19;;;;;;;200.45;64.90;;;;;;;;;;5046049;28;20067;-69
2021/11/11 00:21:45;;;;;;;219.50;65.18;;;;;;;;;;5046290;28;20108;-69
2021/11/11 00:24:11;;;;;;;225.25;67.65;;;;;;;;;;5042253;28;20076;-69
2021/11/11 00:26:38;;;;;;;224.45;66.93;;;;;;;;;;5068466;28;20056;-70
2021/11/11 00:29:04;;;;;;;243.27;67.10;;;;;;;;;;5049243;28;20049;-70
2021/11/11 00:31:30;;;;;;;204.77;66.45;;;;;;;;;;5045470;28;20052;-69
2021/11/11 00:33:56;;;;;;;206.55;64.15;;;;;;;;;;5047001;28;20498;-69
2021/11/11 00:36:23;;;;;;;216.57;65.90;;;;;;;;;;5042593;28;20493;-69
2021/11/11 00:38:49;;;;;;;195.15;64.05;;;;;;;;;;5041788;28;20053;-70
2021/11/11 00:41:16;;;;;;;212.40;69.32;;;;;;;;;;5048399;28;20044;-70
2021/11/11 00:43:42;;;;;;;213.35;68.40;;;;;;;;;;5042138;28;20050;-69
2021/11/11 00:46:08;;;;;;;205.20;62.10;;;;;;;;;;5052960;28;20041;-70
2021/11/11 00:48:35;;;;;;;182.65;60.38;;;;;;;;;;5039442;28;20045;-70
2021/11/11 00:51:01;;;;;;;203.18;62.42;;;;;;;;;;5039109;28;20091;-69
2021/11/11 00:53:27;;;;;;;203.75;63.15;;;;;;;;;;5054315;28;20477;-69
2021/11/11 00:55:53;;;;;;;207.48;64.38;;;;;;;;;;5039831;28;20497;-70
2021/11/11 00:58:19;;;;;;;222.48;65.88;;;;;;;;;;5044644;28;20041;-70
2021/11/11 01:00:46;;;;;;;215.50;63.67;;;;;;;;;;5041916;28;20049;-69
2021/11/11 01:03:12;;;;;;;220.52;63.95;;;;;;;;;;5042149;28;20051;-69
2021/11/11 01:05:39;;;;;;;212.43;61.63;;;;;;;;;;5047224;28;20056;-69
2021/11/11 01:08:05;;;;;;;208.23;60.47;;;;;;;;;;5046546;28;20045;-69
2021/11/11 01:10:31;;;;;;;196.15;58.03;;;;;;;;;;5044531;28;20037;-69
2021/11/11 01:12:58;;;;;;;183.88;57.97;;;;;;;;;;5044809;28;20076;-70
2021/11/11 01:15:26;;;;;;;202.70;59.72;;;;;;;;;;5036003;28;20049;-69
2021/11/11 01:17:52;;;;;;;184.90;58.28;;;;;;;;;;5034117;28;20473;-69
2021/11/11 01:20:19;;;;;;;186.00;57.97;;;;;;;;;;5052967;28;20048;-69
2021/11/11 01:22:46;;;;;;;206.98;61.72;;;;;;;;;;5036062;28;20409;-69
2021/11/11 01:25:14;;;;;;;179.85;58.85;;;;;;;;;;5038666;28;20045;-70
2021/11/11 01:27:41;;;;;;;171.25;54.67;;;;;;;;;;5036422;28;20412;-69
2021/11/11 01:30:07;;;;;;;177.15;57.00;;;;;;;;;;5045859;28;20049;-69
2021/11/11 01:32:34;;;;;;;197.48;60.60;;;;;;;;;;5043567;28;20120;-69
2021/11/11 01:35:00;;;;;;;188.52;60.28;;;;;;;;;;5039955;28;20055;-69
2021/11/11 01:37:26;;;;;;;206.82;59.88;;;;;;;;;;5047183;28;20125;-69
2021/11/11 01:39:52;;;;;;;184.75;56.72;;;;;;;;;;5045346;28;20060;-69
2021/11/11 01:42:19;;;;;;;180.82;56.58;;;;;;;;;;5045941;28;20147;-69
2021/11/11 01:44:49;;;;;;;198.73;57.53;;;;;;;;;;5044835;28;20048;-69
2021/11/11 01:47:15;;;;;;;159.35;53.95;;;;;;;;;;5066940;28;20085;-69
2021/11/11 01:49:41;;;;;;;154.02;52.80;;;;;;;;;;5036659;28;20125;-69
2021/11/11 01:52:09;;;;;;;141.45;50.33;;;;;;;;;;5032507;28;20083;-69
2021/11/11 01:54:35;;;;;;;144.88;51.13;;;;;;;;;;5042190;28;20057;-69
2021/11/11 01:57:01;;;;;;;154.10;52.67;;;;;;;;;;5038878;28;20120;-69
2021/11/11 01:59:28;;;;;;;158.13;52.10;;;;;;;;;;5042692;28;20489;-69
2021/11/11 02:01:55;;;;;;;143.10;50.35;;;;;;;;;;5045477;28;20045;-69
2021/11/11 02:04:22;;;;;;;139.27;50.25;;;;;;;;;;5042613;28;20050;-69
2021/11/11 02:06:48;;;;;;;152.65;51.03;;;;;;;;;;5040986;28;20132;-70
2021/11/11 02:09:15;;;;;;;160.45;53.60;;;;;;;;;;5021491;28;20405;-69
2021/11/11 02:11:41;;;;;;;141.05;49.53;;;;;;;;;;5057310;28;20033;-69
2021/11/11 02:14:07;;;;;;;155.57;50.97;;;;;;;;;;5044964;28;20137;-70
2021/11/11 02:16:35;;;;;;;149.13;48.33;;;;;;;;;;5047030;28;20411;-69
2021/11/11 02:19:02;;;;;;;170.13;51.15;;;;;;;;;;5046202;28;20106;-69
2021/11/11 02:21:28;;;;;;;154.13;48.88;;;;;;;;;;5042896;28;20128;-69
2021/11/11 02:23:54;;;;;;;159.13;48.67;;;;;;;;;;5042342;28;20495;-69
2021/11/11 02:26:20;;;;;;;136.10;46.75;;;;;;;;;;5059633;28;20087;-70
2021/11/11 02:28:47;;;;;;;150.45;46.95;;;;;;;;;;5038389;28;20397;-69
2021/11/11 02:31:13;;;;;;;150.95;48.83;;;;;;;;;;5035483;28;20038;-69
2021/11/11 02:33:39;;;;;;;156.25;47.67;;;;;;;;;;5042653;28;20049;-69
2021/11/11 02:36:05;;;;;;;151.70;47.40;;;;;;;;;;5034978;28;20072;-70
2021/11/11 02:38:32;;;;;;;158.75;48.22;;;;;;;;;;5062527;28;21372;-70
2021/11/11 02:41:00;;;;;;;158.65;47.75;;;;;;;;;;5038062;28;20045;-69
2021/11/11 02:43:28;;;;;;;153.95;47.05;;;;;;;;;;5038814;28;20477;-69
2021/11/11 02:45:54;;;;;;;154.95;46.15;;;;;;;;;;5036521;28;20457;-69
2021/11/11 02:48:22;;;;;;;155.15;47.33;;;;;;;;;;5034040;28;20504;-70
2021/11/11 02:50:49;;;;;;;157.50;47.45;;;;;;;;;;5032745;28;20049;-69
2021/11/11 02:53:16;;;;;;;172.32;47.42;;;;;;;;;;5038802;28;20102;-70
2021/11/11 02:55:42;;;;;;;155.88;48.47;;;;;;;;;;5042400;28;20033;-69
2021/11/11 02:58:08;;;;;;;169.82;47.35;;;;;;;;;;5044231;28;20083;-69
2021/11/11 03:00:39;;;;;;;147.23;47.13;;;;;;;;;;5041425;28;20052;-69
2021/11/11 03:03:06;;;;;;;169.65;47.17;;;;;;;;;;5057623;28;20569;-69
2021/11/11 03:05:33;;;;;;;183.15;49.78;;;;;;;;;;5037073;28;20097;-70
2021/11/11 03:08:00;;;;;;;177.65;49.95;;;;;;;;;;5043235;28;20047;-69
2021/11/11 03:10:27;;;;;;;178.27;50.53;;;;;;;;;;5040615;28;20049;-69
2021/11/11 03:12:56;;;;;;;186.50;50.97;;;;;;;;;;5039524;28;20139;-70
2021/11/11 03:15:24;;;;;;;186.18;50.25;;;;;;;;;;5041477;28;21026;-70
2021/11/11 03:17:51;;;;;;;177.48;50.40;;;;;;;;;;5039358;28;20053;-70
2021/11/11 03:20:18;;;;;;;168.27;51.78;;;;;;;;;;5040948;28;20048;-69
2021/11/11 03:22:44;;;;;;;179.15;52.03;;;;;;;;;;5044919;28;20509;-70
2021/11/11 03:25:11;;;;;;;199.13;56.17;;;;;;;;;;5040515;28;20047;-69
2021/11/11 03:27:38;;;;;;;194.05;56.88;;;;;;;;;;5044135;28;20053;-69
2021/11/11 03:30:05;;;;;;;166.27;53.20;;;;;;;;;;5042678;28;20114;-70
2021/11/11 03:32:31;;;;;;;158.35;53.03;;;;;;;;;;5041019;28;20095;-69
2021/11/11 03:34:57;;;;;;;172.90;54.65;;;;;;;;;;5041770;28;20136;-69
2021/11/11 03:37:24;;;;;;;165.07;55.53;;;;;;;;;;5028355;28;20041;-70
2021/11/11 03:39:51;;;;;;;175.65;55.53;;;;;;;;;;5042914;28;20176;-69
2021/11/11 03:42:17;;;;;;;171.13;53.90;;;;;;;;;;5037484;28;20111;-70
2021/11/11 03:44:44;;;;;;;171.32;53.80;;;;;;;;;;5036223;28;20473;-70
2021/11/11 03:47:10;;;;;;;162.45;51.83;;;;;;;;;;5038162;28;20045;-69
2021/11/11 03:49:37;;;;;;;163.50;54.20;;;;;;;;;;5038358;28;20446;-69
2021/11/11 03:52:04;;;;;;;152.52;52.78;;;;;;;;;;5042235;28;20040;-69
2021/11/11 03:54:30;;;;;;;164.90;53.65;;;;;;;;;;5064318;28;20749;-69
2021/11/11 03:56:57;;;;;;;151.68;53.53;;;;;;;;;;5044018;28;20041;-70
2021/11/11 03:59:24;;;;;;;162.13;53.70;;;;;;;;;;5036786;28;20045;-69
2021/11/11 04:01:51;;;;;;;182.77;59.38;;;;;;;;;;5043151;28;20050;-69
2021/11/11 04:04:17;;;;;;;160.85;55.28;;;;;;;;;;5039777;28;20145;-69
2021/11/11 04:06:44;;;;;;;155.90;52.53;;;;;;;;;;5044006;28;20439;-70
2021/11/11 04:09:10;;;;;;;175.07;53.38;;;;;;;;;;5039168;28;20363;-69
2021/11/11 04:11:36;;;;;;;141.57;51.22;;;;;;;;;;5041394;28;20051;-69
2021/11/11 04:14:03;;;;;;;152.45;55.10;;;;;;;;;;5035828;28;20060;-70
2021/11/11 04:16:29;;;;;;;162.95;54.33;;;;;;;;;;5042050;28;20407;-70
2021/11/11 04:18:55;;;;;;;173.82;54.35;;;;;;;;;;5047773;28;20401;-69
2021/11/11 04:21:22;;;;;;;157.95;53.53;;;;;;;;;;5026403;28;20092;-70
2021/11/11 04:23:50;;;;;;;158.63;53.50;;;;;;;;;;5038832;28;20175;-69
2021/11/11 04:28:48;;;;;;;144.85;50.80;;;;;;;;;;5045520;28;20050;-70
2021/11/11 04:31:23;;;;;;;157.65;53.95;;;;;;;;;;5057727;28;20045;-69
2021/11/11 04:33:52;;;;;;;157.02;52.85;;;;;;;;;;5043060;28;20404;-69
2021/11/11 04:39:19;;;;;;;151.73;53.30;;;;;;;;;;5054535;28;21273;-69
2021/11/11 04:47:32;;;;;;;146.10;51.22;;;;;;;;;;5069122;28;20049;-69
2021/11/11 04:52:43;;;;;;;147.40;53.63;;;;;;;;;;5071559;28;20072;-70
2021/11/11 05:03:19;;;;;;;151.88;52.35;;;;;;;;;;5045040;28;20037;-69
2021/11/11 05:05:45;;;;;;;142.23;49.90;;;;;;;;;;5042016;28;20059;-70
2021/11/11 05:08:12;;;;;;;149.98;48.75;;;;;;;;;;5045388;28;20485;-70
2021/11/11 05:10:38;;;;;;;141.52;49.60;;;;;;;;;;5044878;28;20061;-69
2021/11/11 05:13:04;;;;;;;138.10;49.13;;;;;;;;;;5043203;28;20059;-70
2021/11/11 05:15:30;;;;;;;148.23;51.45;;;;;;;;;;5049226;28;20036;-69
2021/11/11 05:17:57;;;;;;;139.68;48.83;;;;;;;;;;5047141;28;20037;-69
2021/11/11 05:20:23;;;;;;;140.45;49.70;;;;;;;;;;5042838;28;20039;-69
2021/11/11 05:22:49;;;;;;;154.27;52.35;;;;;;;;;;5038147;28;20041;-69
2021/11/11 05:25:16;;;;;;;153.85;53.42;;;;;;;;;;5038461;28;20072;-70
2021/11/11 05:27:44;;;;;;;159.27;53.88;;;;;;;;;;5036631;28;20041;-70
2021/11/11 05:30:11;;;;;;;156.15;53.92;;;;;;;;;;5040850;28;20074;-70
2021/11/11 05:32:37;;;;;;;151.13;53.20;;;;;;;;;;5037213;28;20051;-70
2021/11/11 05:35:04;;;;;;;139.80;51.53;;;;;;;;;;5035974;28;20098;-70
2021/11/11 05:37:30;;;;;;;142.48;52.45;;;;;;;;;;5040664;28;20060;-69
2021/11/11 05:39:56;;;;;;;132.57;49.67;;;;;;;;;;5043597;28;20048;-70
2021/11/11 05:42:22;;;;;;;144.93;53.13;;;;;;;;;;5047544;28;20049;-70
2021/11/11 05:44:49;;;;;;;144.90;51.55;;;;;;;;;;5048299;28;20447;-69
2021/11/11 05:47:16;;;;;;;146.07;52.53;;;;;;;;;;5044471;28;20183;-69
2021/11/11 05:49:42;;;;;;;150.63;54.17;;;;;;;;;;5038810;28;20052;-68
2021/11/11 05:52:08;;;;;;;162.90;56.13;;;;;;;;;;5037713;28;20435;-69
2021/11/11 05:54:37;;;;;;;162.77;57.08;;;;;;;;;;5046426;28;20047;-69
2021/11/11 05:57:04;;;;;;;165.40;58.00;;;;;;;;;;5048385;28;20548;-70
2021/11/11 05:59:30;;;;;;;166.13;59.03;;;;;;;;;;5038802;28;20057;-69
2021/11/11 06:01:57;;;;;;;155.85;58.17;;;;;;;;;;5054738;28;20071;-69
2021/11/11 06:04:23;;;;;;;160.60;61.08;;;;;;;;;;5027409;28;20119;-69
2021/11/11 06:06:49;;;;;;;149.00;57.20;;;;;;;;;;5049819;28;20459;-76
2021/11/11 06:09:16;;;;;;;163.73;58.17;;;;;;;;;;5046349;28;20101;-69
2021/11/11 06:11:42;;;;;;;151.25;57.10;;;;;;;;;;5048348;28;20044;-70
2021/11/11 06:14:08;;;;;;;158.48;59.78;;;;;;;;;;5048370;28;20481;-70
2021/11/11 06:16:34;;;;;;;167.23;63.03;;;;;;;;;;5044591;28;20579;-69
2021/11/11 06:19:01;;;;;;;177.38;65.22;;;;;;;;;;5045798;28;20041;-69
2021/11/11 06:21:27;;;;;;;179.40;66.78;;;;;;;;;;5047312;28;20036;-70
2021/11/11 06:23:54;;;;;;;170.55;62.90;;;;;;;;;;5046877;28;20052;-70
2021/11/11 06:26:21;;;;;;;162.40;61.58;;;;;;;;;;5045957;28;20101;-69
2021/11/11 06:28:47;;;;;;;162.52;62.85;;;;;;;;;;5045513;28;20059;-70
2021/11/11 06:31:13;;;;;;;155.25;61.78;;;;;;;;;;5046415;28;20522;-67
2021/11/11 06:33:40;;;;;;;159.02;64.30;;;;;;;;;;5044108;28;20042;-67
2021/11/11 06:36:06;;;;;;;171.43;64.68;;;;;;;;;;5038945;28;20124;-68
2021/11/11 06:38:32;;;;;;;176.70;65.97;;;;;;;;;;5040931;28;20501;-67
2021/11/11 06:40:58;;;;;;;172.13;67.57;;;;;;;;;;5036532;28;20401;-67
2021/11/11 06:43:25;;;;;;;186.15;70.53;;;;;;;;;;5039122;28;20048;-68
2021/11/11 06:45:51;;;;;;;200.23;73.07;;;;;;;;;;5032259;28;20138;-67
2021/11/11 06:48:17;;;;;;;188.55;73.22;;;;;;;;;;5043291;28;20037;-68
2021/11/11 06:50:44;;;;;;;203.77;75.55;;;;;;;;;;5031137;28;20045;-68
2021/11/11 06:53:12;;;;;;;213.75;79.55;;;;;;;;;;5032602;28;20049;-68
2021/11/11 06:55:39;;;;;;;204.80;77.18;;;;;;;;;;5031021;28;20536;-68
2021/11/11 06:58:06;;;;;;;226.27;80.72;;;;;;;;;;5038355;28;20044;-67
2021/11/11 07:00:32;;;;;;;217.25;78.78;;;;;;;;;;5071616;28;20203;-67
2021/11/11 07:02:58;;;;;;;242.93;82.07;;;;;;;;;;5038984;28;20044;-67
2021/11/11 07:05:24;;;;;;;243.02;83.05;;;;;;;;;;5033704;28;20553;-67
2021/11/11 07:07:50;;;;;;;250.25;85.75;;;;;;;;;;5072131;28;20118;-67
2021/11/11 07:10:17;;;;;;;270.23;88.50;;;;;;;;;;5032569;28;20044;-67
2021/11/11 07:12:44;;;;;;;266.23;90.40;;;;;;;;;;5036108;28;20049;-67
2021/11/11 07:15:11;;;;;;;298.70;95.15;;;;;;;;;;5037416;28;20119;-67
2021/11/11 07:17:38;;;;;;;274.45;91.15;;;;;;;;;;5068146;28;20041;-67
2021/11/11 07:20:06;;;;;;;297.15;95.03;;;;;;;;;;5070255;28;20418;-67
2021/11/11 07:22:32;;;;;;;301.35;95.82;;;;;;;;;;5034283;28;20114;-67
2021/11/11 07:24:58;;;;;;;306.40;95.22;;;;;;;;;;5071840;28;20045;-67
2021/11/11 07:27:25;;;;;;;293.90;95.53;;;;;;;;;;5038506;28;20126;-66
2021/11/11 07:29:51;;;;;;;292.02;93.80;;;;;;;;;;5032058;28;20049;-67
2021/11/11 07:32:17;;;;;;;265.45;91.15;;;;;;;;;;5035668;28;20057;-74
2021/11/11 07:34:44;;;;;;;298.80;96.72;;;;;;;;;;5067350;28;20049;-76
2021/11/11 07:37:11;;;;;;;300.75;92.97;;;;;;;;;;5033247;28;20434;-87
2021/11/11 07:39:37;;;;;;;282.25;92.72;;;;;;;;;;5051042;28;20044;-70
2021/11/11 07:42:03;;;;;;;301.30;93.45;;;;;;;;;;5034214;28;20041;-87
2021/11/11 07:44:30;;;;;;;282.00;92.85;;;;;;;;;;5037419;28;20552;-72
2021/11/11 07:46:56;;;;;;;256.30;85.45;;;;;;;;;;5031657;28;20041;-71
2021/11/11 07:49:22;;;;;;;272.75;88.95;;;;;;;;;;5036063;28;20065;-69
2021/11/11 07:51:48;;;;;;;265.52;85.72;;;;;;;;;;5039185;28;20049;-69
2021/11/11 07:54:15;;;;;;;257.10;87.55;;;;;;;;;;5073986;28;20533;-70
2021/11/11 07:56:42;;;;;;;245.73;84.78;;;;;;;;;;5078009;28;20045;-70
2021/11/11 07:59:09;;;;;;;217.88;81.65;;;;;;;;;;5078556;28;20056;-69
2021/11/11 08:01:35;;;;;;;258.45;87.88;;;;;;;;;;5044702;28;20053;-69
2021/11/11 08:04:01;;;;;;;255.82;83.50;;;;;;;;;;5040364;28;20077;-69
2021/11/11 08:06:27;;;;;;;240.82;85.63;;;;;;;;;;5078300;28;20405;-69
2021/11/11 08:08:54;;;;;;;228.00;81.18;;;;;;;;;;5080945;28;20042;-69
2021/11/11 08:11:20;;;;;;;252.07;84.78;;;;;;;;;;5073707;28;20045;-69
2021/11/11 08:13:49;;;;;;;257.10;85.70;;;;;;;;;;5038787;28;20088;-69
2021/11/11 08:16:15;;;;;;;243.18;82.40;;;;;;;;;;5038794;28;20042;-69
2021/11/11 08:18:41;;;;;;;237.23;80.57;;;;;;;;;;5048251;28;20452;-70
2021/11/11 08:21:07;;;;;;;225.68;82.07;;;;;;;;;;5036030;28;20059;-69
2021/11/11 08:23:35;;;;;;;231.13;78.97;;;;;;;;;;5046364;28;20158;-69
2021/11/11 08:26:04;;;;;;;209.80;78.20;;;;;;;;;;5034444;28;20132;-71
2021/11/11 08:28:31;;;;;;;238.45;77.93;;;;;;;;;;5078365;28;20497;-69
2021/11/11 08:30:57;;;;;;;223.55;77.95;;;;;;;;;;5061321;28;20040;-69
2021/11/11 08:33:24;;;;;;;244.88;81.00;;;;;;;;;;5077722;28;20513;-69
2021/11/11 08:35:50;;;;;;;259.02;82.13;;;;;;;;;;5038622;28;20488;-69
2021/11/11 08:38:17;;;;;;;245.38;84.63;;;;;;;;;;5043920;28;20514;-69
2021/11/11 08:40:43;;;;;;;263.73;84.82;;;;;;;;;;5039236;28;20128;-69
2021/11/11 08:43:10;;;;;;;229.27;80.07;;;;;;;;;;5034508;28;20062;-69
2021/11/11 08:45:36;;;;;;;225.23;81.80;;;;;;;;;;5042073;28;20520;-69
2021/11/11 08:48:02;;;;;;;257.00;84.32;;;;;;;;;;5049959;28;20053;-69
2021/11/11 08:50:30;;;;;;;269.52;86.30;;;;;;;;;;5049335;28;20512;-69
2021/11/11 08:52:58;;;;;;;265.52;87.88;;;;;;;;;;5037395;28;20053;-70
2021/11/11 08:55:25;;;;;;;283.88;89.38;;;;;;;;;;5043472;28;20045;-69
2021/11/11 08:57:52;;;;;;;283.08;88.90;;;;;;;;;;5049240;28;20044;-69
2021/11/11 09:00:21;;;;;;;288.13;89.35;;;;;;;;;;5065323;28;20040;-69
2021/11/11 09:02:48;;;;;;;281.13;85.28;;;;;;;;;;5048445;28;20042;-69
2021/11/11 09:05:15;;;;;;;283.02;87.72;;;;;;;;;;5083657;28;20057;-70
2021/11/11 09:07:43;;;;;;;311.63;91.63;;;;;;;;;;5047089;28;20437;-69
2021/11/11 09:10:12;;;;;;;313.77;92.13;;;;;;;;;;5050717;28;20116;-69
2021/11/11 09:12:38;;;;;;;274.27;88.28;;;;;;;;;;5050487;28;20045;-70
2021/11/11 09:15:06;;;;;;;269.10;85.32;;;;;;;;;;5048234;28;20047;-69
2021/11/11 09:17:32;;;;;;;296.23;91.05;;;;;;;;;;5051498;28;20044;-69
2021/11/11 09:19:59;;;;;;;299.83;90.05;;;;;;;;;;5075953;28;20486;-69
2021/11/11 09:22:27;;;;;;;297.65;88.43;;;;;;;;;;5050773;28;20045;-69
2021/11/11 09:24:53;;;;;;;286.90;89.22;;;;;;;;;;5049992;28;20041;-69
2021/11/11 09:27:20;;;;;;;320.65;89.00;;;;;;;;;;5077414;28;20361;-69
2021/11/11 09:29:46;;;;;;;342.70;93.70;;;;;;;;;;5075011;28;20106;-70
2021/11/11 09:32:12;;;;;;;299.17;90.47;;;;;;;;;;5048100;28;20412;-69
2021/11/11 09:34:38;;;;;;;305.05;90.40;;;;;;;;;;5082705;28;20053;-69
2021/11/11 09:37:05;;;;;;;307.50;92.88;;;;;;;;;;5052343;28;20112;-69
2021/11/11 09:39:31;;;;;;;300.17;90.82;;;;;;;;;;5048483;28;20052;-69
2021/11/11 09:41:58;;;;;;;278.13;85.55;;;;;;;;;;5056220;28;20048;-69
2021/11/11 09:44:25;;;;;;;259.02;84.47;;;;;;;;;;5051043;28;20072;-69
2021/11/11 09:46:53;;;;;;;255.65;80.32;;;;;;;;;;5076225;28;20033;-70
2021/11/11 09:49:21;;;;;;;265.25;82.70;;;;;;;;;;5049780;28;20124;-70
2021/11/11 09:51:48;;;;;;;255.88;84.20;;;;;;;;;;5051888;28;20032;-70
2021/11/11 09:59:27;;;;;;;271.88;84.22;;;;;;;;;;5043253;28;20049;-70
2021/11/11 10:01:54;;;;;;;251.90;83.47;;;;;;;;;;5032335;28;20413;-70
2021/11/11 10:04:20;;;;;;;271.60;86.38;;;;;;;;;;5047126;28;20103;-70
2021/11/11 10:06:47;;;;;;;270.17;84.65;;;;;;;;;;5075156;28;20085;-70
2021/11/11 10:09:14;;;;;;;261.10;83.30;;;;;;;;;;5082301;28;20492;-70
2021/11/11 10:11:49;;;;;;;241.93;80.45;;;;;;;;;;5083368;28;20049;-70
2021/11/11 10:14:16;;;;;;;257.65;82.68;;;;;;;;;;5046309;28;20313;-70
2021/11/11 10:16:44;;;;;;;247.07;80.63;;;;;;;;;;5049471;28;20070;-70
2021/11/11 10:19:10;;;;;;;208.50;75.68;;;;;;;;;;5050875;28;20511;-70
2021/11/11 10:21:40;;;;;;;260.20;79.38;;;;;;;;;;5077587;28;20078;-70
2021/11/11 10:24:17;;;;;;;200.77;72.78;;;;;;;;;;5048341;28;20048;-70
2021/11/11 10:26:56;;;;;;;189.60;70.38;;;;;;;;;;5079152;28;20051;-70
2021/11/11 10:29:22;;;;;;;202.55;69.97;;;;;;;;;;5054319;28;20512;-70
2021/11/11 10:31:52;;;;;;;198.52;72.90;;;;;;;;;;5083154;28;20176;-70
2021/11/11 10:34:19;;;;;;;218.70;71.75;;;;;;;;;;5044018;28;20068;-70
2021/11/11 10:36:47;;;;;;;192.38;71.53;;;;;;;;;;5038706;28;20397;-70
2021/11/11 10:39:16;;;;;;;189.50;70.00;;;;;;;;;;5048919;28;20044;-72
2021/11/11 10:41:43;;;;;;;175.30;67.38;;;;;;;;;;5039406;28;20041;-70
2021/11/11 10:44:16;;;;;;;187.32;68.05;;;;;;;;;;5046621;28;20063;-70
2021/11/11 10:46:44;;;;;;;179.25;65.72;;;;;;;;;;5039888;28;20049;-70
2021/11/11 10:49:18;;;;;;;160.25;64.22;;;;;;;;;;5040774;28;20039;-70
2021/11/11 10:51:44;;;;;;;163.48;63.65;;;;;;;;;;5041851;28;20044;-70
2021/11/11 10:54:10;;;;;;;145.93;61.08;;;;;;;;;;5044011;28;20166;-70
2021/11/11 10:56:42;;;;;;;125.80;56.05;;;;;;;;;;5039918;28;20061;-69
2021/11/11 10:59:13;;;;;;;126.47;54.95;;;;;;;;;;5051613;28;20127;-71
2021/11/11 11:01:39;;;;;;;129.18;57.42;;;;;;;;;;5036196;28;20080;-70
2021/11/11 11:04:05;;;;;;;117.63;52.65;;;;;;;;;;5033545;28;20049;-71
2021/11/11 11:06:33;;;;;;;99.50;49.22;;;;;;;;;;5045347;28;20112;-71
2021/11/11 11:09:00;;;;;;;114.13;52.15;;;;;;;;;;5046917;28;20859;-71
2021/11/11 11:11:29;;;;;;;95.93;45.50;;;;;;;;;;5046739;28;20123;-71
2021/11/11 11:13:57;;;;;;;104.13;46.70;;;;;;;;;;5050519;28;20510;-71
2021/11/11 11:16:24;;;;;;;104.03;48.53;;;;;;;;;;5047046;28;20033;-71
2021/11/11 11:18:55;;;;;;;97.68;45.67;;;;;;;;;;5043086;28;20045;-70
2021/11/11 11:21:23;;;;;;;97.80;45.60;;;;;;;;;;5044373;28;20496;-71
2021/11/11 11:23:50;;;;;;;106.10;46.83;;;;;;;;;;5075768;28;20439;-71
2021/11/11 11:26:19;;;;;;;95.30;43.90;;;;;;;;;;5042687;28;20032;-70
2021/11/11 11:28:49;;;;;;;85.68;41.60;;;;;;;;;;5045027;28;20059;-71
2021/11/11 11:31:24;;;;;;;89.53;43.60;;;;;;;;;;5075041;28;20044;-70
2021/11/11 11:33:51;;;;;;;74.45;39.35;;;;;;;;;;5039892;28;20045;-70
2021/11/11 11:36:18;;;;;;;81.68;41.85;;;;;;;;;;5039394;28;20174;-71
2021/11/11 11:38:49;;;;;;;87.97;44.05;;;;;;;;;;5040526;28;20077;-70
2021/11/11 11:41:25;;;;;;;84.10;44.45;;;;;;;;;;5031682;28;20079;-70
2021/11/11 11:43:51;;;;;;;83.95;42.88;;;;;;;;;;5063366;28;20041;-71
2021/11/11 11:46:20;;;;;;;84.30;42.40;;;;;;;;;;5046313;28;20053;-70
2021/11/11 11:48:48;;;;;;;84.72;42.65;;;;;;;;;;5038018;28;20627;-70
2021/11/11 11:51:16;;;;;;;82.85;42.17;;;;;;;;;;5043812;28;20060;-70
2021/11/11 11:53:48;;;;;;;87.78;42.33;;;;;;;;;;5042512;28;20052;-69
2021/11/11 11:56:21;;;;;;;94.50;45.00;;;;;;;;;;5028055;28;20382;-71
2021/11/11 11:58:55;;;;;;;98.47;46.77;;;;;;;;;;5066500;28;20061;-70
2021/11/11 12:01:35;;;;;;;94.32;46.40;;;;;;;;;;5036933;28;20419;-70
2021/11/11 12:06:52;;;;;;;84.70;41.78;;;;;;;;;;5041587;28;20052;-70
2021/11/11 12:14:21;;;;;;;87.00;43.83;;;;;;;;;;5040203;28;20053;-69
2021/11/11 12:39:38;;;;;;;75.15;37.22;;;;;;;;;;5041063;28;20168;-70
2021/11/11 12:42:06;;;;;;;74.80;35.53;;;;;;;;;;5044999;28;20053;-70
2021/11/11 12:44:33;;;;;;;78.25;37.35;;;;;;;;;;5033992;28;20568;-71
2021/11/11 12:46:59;;;;;;;79.03;38.30;;;;;;;;;;5046147;28;20055;-71
2021/11/11 12:49:33;;;;;;;86.25;39.65;;;;;;;;;;5043783;28;20033;-71
2021/11/11 12:52:13;;;;;;;68.93;35.92;;;;;;;;;;5051204;28;20068;-71
2021/11/11 12:54:40;;;;;;;68.07;35.30;;;;;;;;;;5070239;28;20061;-71
2021/11/11 12:57:07;;;;;;;81.82;36.80;;;;;;;;;;5046290;28;20033;-71
2021/11/11 12:59:35;;;;;;;66.28;34.50;;;;;;;;;;5039608;28;20077;-71
2021/11/11 13:02:05;;;;;;;60.70;33.92;;;;;;;;;;5045484;28;20366;-71
2021/11/11 13:04:46;;;;;;;64.97;33.85;;;;;;;;;;5034371;28;20132;-71
2021/11/11 13:07:24;;;;;;;64.97;33.40;;;;;;;;;;5047431;28;20048;-70
2021/11/11 13:10:00;;;;;;;63.15;34.38;;;;;;;;;;5051784;28;20056;-70
2021/11/11 13:12:26;;;;;;;59.25;32.78;;;;;;;;;;5046454;28;20071;-70
2021/11/11 13:14:54;;;;;;;64.13;33.00;;;;;;;;;;5052454;28;20059;-71
2021/11/11 13:17:24;;;;;;;80.57;34.92;;;;;;;;;;5042883;28;20036;-71
2021/11/11 13:20:05;;;;;;;57.50;31.42;;;;;;;;;;5050561;28;20049;-70
2021/11/11 13:22:46;;;;;;;57.85;30.20;;;;;;;;;;5044862;28;20041;-74
2021/11/11 14:01:10;;;;;;;77.03;37.92;;;;;;;;;;5047984;28;20124;-72
2021/11/11 14:04:11;;;;;;;67.50;37.25;;;;;;;;;;5040135;28;20434;-72
2021/11/11 15:16:07;;;;;;;108.57;57.30;;;;;;;;;;5042224;28;20045;-71
2021/11/11 15:47:03;;;;;;;105.80;56.05;;;;;;;;;;5065601;28;20452;-73
2021/11/11 15:57:31;;;;;;;110.88;56.42;;;;;;;;;;5069812;28;20045;-73
2021/11/11 16:00:04;;;;;;;121.00;59.13;;;;;;;;;;5036843;28;20045;-74
2021/11/11 16:26:31;;;;;;;119.65;54.65;;;;;;;;;;5058933;28;20052;-72
2021/11/11 16:28:59;;;;;;;119.53;57.50;;;;;;;;;;5041646;28;20572;-72
2021/11/11 16:31:27;;;;;;;112.28;55.20;;;;;;;;;;5044059;28;20138;-72
2021/11/11 16:33:56;;;;;;;116.53;56.80;;;;;;;;;;5040653;28;20060;-73
2021/11/11 16:36:22;;;;;;;111.32;55.28;;;;;;;;;;5044338;28;20488;-73
2021/11/11 16:38:49;;;;;;;115.78;55.72;;;;;;;;;;5044301;28;20073;-73
2021/11/11 16:41:16;;;;;;;110.70;54.13;;;;;;;;;;5043440;28;20121;-73
2021/11/11 16:43:43;;;;;;;120.80;55.28;;;;;;;;;;5069432;28;20492;-73
2021/11/11 16:46:11;;;;;;;115.95;54.70;;;;;;;;;;5043315;28;20099;-73
2021/11/11 16:48:39;;;;;;;119.00;55.65;;;;;;;;;;5043531;28;20044;-73
2021/11/11 16:51:06;;;;;;;122.97;56.35;;;;;;;;;;5044023;28;20377;-73
2021/11/11 16:53:33;;;;;;;128.43;56.72;;;;;;;;;;5042885;28;20066;-72
2021/11/11 16:55:59;;;;;;;109.32;55.42;;;;;;;;;;5043863;28;20060;-73
2021/11/11 16:58:26;;;;;;;115.63;54.22;;;;;;;;;;5044216;28;20040;-73
2021/11/11 17:00:52;;;;;;;115.45;55.67;;;;;;;;;;5043684;28;20080;-74
2021/11/11 17:03:18;;;;;;;118.45;54.35;;;;;;;;;;5041208;28;20068;-74
2021/11/11 17:05:46;;;;;;;115.65;53.28;;;;;;;;;;5061466;28;20084;-73
2021/11/11 17:08:12;;;;;;;111.43;53.17;;;;;;;;;;5045760;28;20049;-73
2021/11/11 17:10:38;;;;;;;124.57;56.05;;;;;;;;;;5024882;28;20041;-71
2021/11/11 17:13:05;;;;;;;123.20;57.10;;;;;;;;;;5041420;28;20132;-73
2021/11/11 17:15:34;;;;;;;116.40;53.13;;;;;;;;;;5041685;28;20049;-73
2021/11/11 17:18:00;;;;;;;121.43;57.67;;;;;;;;;;5070021;28;20045;-73
2021/11/11 17:20:28;;;;;;;116.13;53.53;;;;;;;;;;5040653;28;20453;-73
2021/11/11 17:22:56;;;;;;;114.32;56.55;;;;;;;;;;5046648;28;20115;-72
2021/11/11 17:30:35;;;;;;;118.95;52.38;;;;;;;;;;5047403;28;20394;-72
2021/11/11 17:33:01;;;;;;;116.35;53.92;;;;;;;;;;5045092;28;20048;-72
2021/11/11 17:35:27;;;;;;;120.25;54.58;;;;;;;;;;5039898;28;20044;-72
2021/11/11 17:37:54;;;;;;;121.75;54.55;;;;;;;;;;5034285;28;20044;-72
2021/11/11 17:40:20;;;;;;;120.15;56.00;;;;;;;;;;5043729;28;20183;-72
2021/11/11 17:42:49;;;;;;;116.05;54.42;;;;;;;;;;5070913;28;20060;-73
2021/11/11 17:45:18;;;;;;;104.80;51.50;;;;;;;;;;5069691;28;20049;-72
2021/11/11 17:47:45;;;;;;;119.32;53.97;;;;;;;;;;5038401;28;20099;-72
2021/11/11 17:50:21;;;;;;;110.93;53.65;;;;;;;;;;5040932;28;20117;-72
2021/11/11 17:52:51;;;;;;;124.70;55.67;;;;;;;;;;5042185;28;20393;-72
2021/11/11 17:55:26;;;;;;;112.32;56.35;;;;;;;;;;5041428;28;20484;-72
2021/11/11 17:57:52;;;;;;;121.80;55.55;;;;;;;;;;5044383;28;20434;-72